sensor_id;sensor_type;location;lat;lon;timestamp;P1;durP1;ratioP1;P2;durP2;ratioP2
84009;SDS011;74073;51.482;4.302;2024-02-26T00:00:11;10.07;;;2.80;;
84009;SDS011;74073;51.482;4.302;2024-02-26T00:02:38;10.05;;;3.05;;
84009;SDS011;74073;51.482;4.302;2024-02-26T00:05:05;7.97;;;2.45;;
84009;SDS011;74073;51.482;4.302;2024-02-26T00:07:31;8.35;;;2.78;;
84009;SDS011;74073;51.482;4.302;2024-02-26T00:09:57;9.40;;;2.97;;
84009;SDS011;74073;51.482;4.302;2024-02-26T00:12:23;7.70;;;2.03;;
84009;SDS011;74073;51.482;4.302;2024-02-26T00:14:49;8.63;;;2.85;;
84009;SDS011;74073;51.482;4.302;2024-02-26T00:17:17;8.52;;;2.42;;
84009;SDS011;74073;51.482;4.302;2024-02-26T00:19:43;9.18;;;2.50;;
84009;SDS011;74073;51.482;4.302;2024-02-26T00:22:09;9.20;;;2.15;;
84009;SDS011;74073;51.482;4.302;2024-02-26T00:24:35;7.75;;;2.20;;
84009;SDS011;74073;51.482;4.302;2024-02-26T00:27:01;6.03;;;1.77;;
84009;SDS011;74073;51.482;4.302;2024-02-26T00:29:28;6.15;;;2.00;;
84009;SDS011;74073;51.482;4.302;2024-02-26T00:31:54;8.25;;;2.28;;
84009;SDS011;74073;51.482;4.302;2024-02-26T00:34:20;9.50;;;3.28;;
84009;SDS011;74073;51.482;4.302;2024-02-26T00:36:46;7.05;;;1.92;;
84009;SDS011;74073;51.482;4.302;2024-02-26T00:39:13;8.98;;;2.40;;
84009;SDS011;74073;51.482;4.302;2024-02-26T00:41:40;6.13;;;1.67;;
84009;SDS011;74073;51.482;4.302;2024-02-26T00:44:06;7.45;;;2.05;;
84009;SDS011;74073;51.482;4.302;2024-02-26T00:46:32;7.05;;;1.92;;
84009;SDS011;74073;51.482;4.302;2024-02-26T00:48:58;5.18;;;1.60;;
84009;SDS011;74073;51.482;4.302;2024-02-26T00:51:25;8.63;;;2.00;;
84009;SDS011;74073;51.482;4.302;2024-02-26T00:53:51;6.18;;;1.60;;
84009;SDS011;74073;51.482;4.302;2024-02-26T00:56:17;7.43;;;2.53;;
84009;SDS011;74073;51.482;4.302;2024-02-26T00:58:43;6.90;;;1.75;;
84009;SDS011;74073;51.482;4.302;2024-02-26T01:01:09;5.65;;;1.23;;
84009;SDS011;74073;51.482;4.302;2024-02-26T01:03:35;7.57;;;2.22;;
84009;SDS011;74073;51.482;4.302;2024-02-26T01:06:01;5.97;;;1.33;;
84009;SDS011;74073;51.482;4.302;2024-02-26T01:08:27;8.05;;;1.88;;
84009;SDS011;74073;51.482;4.302;2024-02-26T01:10:53;5.57;;;1.42;;
84009;SDS011;74073;51.482;4.302;2024-02-26T01:13:19;5.85;;;1.35;;
84009;SDS011;74073;51.482;4.302;2024-02-26T01:15:45;5.47;;;1.73;;
84009;SDS011;74073;51.482;4.302;2024-02-26T01:18:11;5.60;;;0.98;;
84009;SDS011;74073;51.482;4.302;2024-02-26T01:20:37;5.50;;;1.55;;
84009;SDS011;74073;51.482;4.302;2024-02-26T01:23:03;7.38;;;2.28;;
84009;SDS011;74073;51.482;4.302;2024-02-26T01:25:30;5.03;;;1.20;;
84009;SDS011;74073;51.482;4.302;2024-02-26T01:27:56;5.45;;;1.60;;
84009;SDS011;74073;51.482;4.302;2024-02-26T01:30:22;6.32;;;1.55;;
84009;SDS011;74073;51.482;4.302;2024-02-26T01:32:48;5.20;;;1.42;;
84009;SDS011;74073;51.482;4.302;2024-02-26T01:35:14;5.82;;;1.23;;
84009;SDS011;74073;51.482;4.302;2024-02-26T01:37:40;6.28;;;1.75;;
84009;SDS011;74073;51.482;4.302;2024-02-26T01:40:07;4.38;;;1.02;;
84009;SDS011;74073;51.482;4.302;2024-02-26T01:42:34;5.75;;;1.42;;
84009;SDS011;74073;51.482;4.302;2024-02-26T01:45:00;5.53;;;1.17;;
84009;SDS011;74073;51.482;4.302;2024-02-26T01:47:27;4.80;;;0.88;;
84009;SDS011;74073;51.482;4.302;2024-02-26T01:49:53;5.03;;;2.05;;
84009;SDS011;74073;51.482;4.302;2024-02-26T01:52:19;5.57;;;1.38;;
84009;SDS011;74073;51.482;4.302;2024-02-26T01:54:46;4.88;;;1.33;;
84009;SDS011;74073;51.482;4.302;2024-02-26T01:57:13;5.18;;;1.20;;
84009;SDS011;74073;51.482;4.302;2024-02-26T01:59:39;5.28;;;1.20;;
84009;SDS011;74073;51.482;4.302;2024-02-26T02:02:06;4.18;;;1.13;;
84009;SDS011;74073;51.482;4.302;2024-02-26T02:04:36;7.10;;;1.58;;
84009;SDS011;74073;51.482;4.302;2024-02-26T02:07:03;5.13;;;1.05;;
84009;SDS011;74073;51.482;4.302;2024-02-26T02:09:29;5.65;;;1.15;;
84009;SDS011;74073;51.482;4.302;2024-02-26T02:11:55;7.75;;;1.00;;
84009;SDS011;74073;51.482;4.302;2024-02-26T02:14:21;4.20;;;0.90;;
84009;SDS011;74073;51.482;4.302;2024-02-26T02:16:48;4.45;;;1.02;;
84009;SDS011;74073;51.482;4.302;2024-02-26T02:19:14;4.13;;;0.95;;
84009;SDS011;74073;51.482;4.302;2024-02-26T02:21:40;4.78;;;1.08;;
84009;SDS011;74073;51.482;4.302;2024-02-26T02:24:06;4.22;;;0.80;;
84009;SDS011;74073;51.482;4.302;2024-02-26T02:26:32;3.28;;;0.65;;
84009;SDS011;74073;51.482;4.302;2024-02-26T02:28:58;4.43;;;0.98;;
84009;SDS011;74073;51.482;4.302;2024-02-26T02:31:24;4.18;;;0.80;;
84009;SDS011;74073;51.482;4.302;2024-02-26T02:33:50;3.67;;;0.82;;
84009;SDS011;74073;51.482;4.302;2024-02-26T02:36:16;4.15;;;0.60;;
84009;SDS011;74073;51.482;4.302;2024-02-26T02:38:51;4.57;;;0.63;;
84009;SDS011;74073;51.482;4.302;2024-02-26T02:41:18;4.55;;;0.85;;
84009;SDS011;74073;51.482;4.302;2024-02-26T02:43:44;3.78;;;1.05;;
84009;SDS011;74073;51.482;4.302;2024-02-26T02:46:10;3.80;;;0.60;;
84009;SDS011;74073;51.482;4.302;2024-02-26T02:48:37;5.32;;;0.75;;
84009;SDS011;74073;51.482;4.302;2024-02-26T02:51:03;4.07;;;0.50;;
84009;SDS011;74073;51.482;4.302;2024-02-26T02:53:29;3.67;;;0.82;;
84009;SDS011;74073;51.482;4.302;2024-02-26T02:55:55;5.43;;;1.38;;
84009;SDS011;74073;51.482;4.302;2024-02-26T02:58:21;4.35;;;0.88;;
84009;SDS011;74073;51.482;4.302;2024-02-26T03:00:47;3.28;;;0.40;;
84009;SDS011;74073;51.482;4.302;2024-02-26T03:03:13;3.17;;;0.55;;
84009;SDS011;74073;51.482;4.302;2024-02-26T03:05:39;4.05;;;1.38;;
84009;SDS011;74073;51.482;4.302;2024-02-26T03:08:05;3.92;;;0.80;;
84009;SDS011;74073;51.482;4.302;2024-02-26T03:10:31;3.17;;;0.43;;
84009;SDS011;74073;51.482;4.302;2024-02-26T03:12:57;3.15;;;0.50;;
84009;SDS011;74073;51.482;4.302;2024-02-26T03:15:23;4.03;;;0.63;;
84009;SDS011;74073;51.482;4.302;2024-02-26T03:17:49;2.90;;;0.80;;
84009;SDS011;74073;51.482;4.302;2024-02-26T03:20:15;3.33;;;0.82;;
84009;SDS011;74073;51.482;4.302;2024-02-26T03:22:44;3.58;;;0.70;;
84009;SDS011;74073;51.482;4.302;2024-02-26T03:25:10;3.80;;;0.90;;
84009;SDS011;74073;51.482;4.302;2024-02-26T03:27:36;2.85;;;0.65;;
84009;SDS011;74073;51.482;4.302;2024-02-26T03:30:02;3.15;;;0.50;;
84009;SDS011;74073;51.482;4.302;2024-02-26T03:32:28;3.47;;;0.63;;
84009;SDS011;74073;51.482;4.302;2024-02-26T03:34:54;3.35;;;0.57;;
84009;SDS011;74073;51.482;4.302;2024-02-26T03:37:21;3.97;;;0.60;;
84009;SDS011;74073;51.482;4.302;2024-02-26T03:39:46;3.38;;;0.60;;
84009;SDS011;74073;51.482;4.302;2024-02-26T03:42:12;3.75;;;0.50;;
84009;SDS011;74073;51.482;4.302;2024-02-26T03:44:38;2.95;;;0.47;;
84009;SDS011;74073;51.482;4.302;2024-02-26T03:47:05;2.28;;;0.68;;
84009;SDS011;74073;51.482;4.302;2024-02-26T03:49:31;2.38;;;0.50;;
84009;SDS011;74073;51.482;4.302;2024-02-26T03:51:57;2.00;;;0.50;;
84009;SDS011;74073;51.482;4.302;2024-02-26T03:54:23;3.58;;;0.43;;
84009;SDS011;74073;51.482;4.302;2024-02-26T03:56:49;2.63;;;0.32;;
84009;SDS011;74073;51.482;4.302;2024-02-26T03:59:15;2.92;;;0.40;;
84009;SDS011;74073;51.482;4.302;2024-02-26T04:01:47;3.20;;;0.47;;
84009;SDS011;74073;51.482;4.302;2024-02-26T04:04:14;2.75;;;0.40;;
84009;SDS011;74073;51.482;4.302;2024-02-26T04:06:43;3.67;;;0.65;;
84009;SDS011;74073;51.482;4.302;2024-02-26T04:09:10;3.38;;;0.68;;
84009;SDS011;74073;51.482;4.302;2024-02-26T04:11:36;2.22;;;0.30;;
84009;SDS011;74073;51.482;4.302;2024-02-26T04:14:02;2.55;;;0.50;;
84009;SDS011;74073;51.482;4.302;2024-02-26T04:16:28;2.88;;;0.60;;
84009;SDS011;74073;51.482;4.302;2024-02-26T04:18:54;2.90;;;0.25;;
84009;SDS011;74073;51.482;4.302;2024-02-26T04:21:20;3.05;;;0.30;;
84009;SDS011;74073;51.482;4.302;2024-02-26T04:23:46;3.10;;;0.30;;
84009;SDS011;74073;51.482;4.302;2024-02-26T04:26:14;2.67;;;0.50;;
84009;SDS011;74073;51.482;4.302;2024-02-26T04:28:40;2.63;;;0.55;;
84009;SDS011;74073;51.482;4.302;2024-02-26T04:31:06;2.10;;;0.30;;
84009;SDS011;74073;51.482;4.302;2024-02-26T04:33:35;3.15;;;0.40;;
84009;SDS011;74073;51.482;4.302;2024-02-26T04:36:01;2.95;;;0.35;;
84009;SDS011;74073;51.482;4.302;2024-02-26T04:38:28;3.30;;;0.77;;
84009;SDS011;74073;51.482;4.302;2024-02-26T04:40:54;2.78;;;0.52;;
84009;SDS011;74073;51.482;4.302;2024-02-26T04:43:20;2.65;;;0.65;;
84009;SDS011;74073;51.482;4.302;2024-02-26T04:45:46;2.80;;;0.45;;
84009;SDS011;74073;51.482;4.302;2024-02-26T04:48:13;2.05;;;0.30;;
84009;SDS011;74073;51.482;4.302;2024-02-26T04:50:39;2.42;;;0.47;;
84009;SDS011;74073;51.482;4.302;2024-02-26T04:53:04;2.15;;;0.30;;
84009;SDS011;74073;51.482;4.302;2024-02-26T04:55:30;2.03;;;0.28;;
84009;SDS011;74073;51.482;4.302;2024-02-26T04:57:57;2.72;;;0.50;;
84009;SDS011;74073;51.482;4.302;2024-02-26T05:00:23;3.35;;;0.65;;
84009;SDS011;74073;51.482;4.302;2024-02-26T05:02:49;4.03;;;0.65;;
84009;SDS011;74073;51.482;4.302;2024-02-26T05:05:15;2.15;;;0.43;;
84009;SDS011;74073;51.482;4.302;2024-02-26T05:07:41;2.58;;;0.32;;
84009;SDS011;74073;51.482;4.302;2024-02-26T05:10:08;1.83;;;0.30;;
84009;SDS011;74073;51.482;4.302;2024-02-26T05:12:34;2.40;;;0.40;;
84009;SDS011;74073;51.482;4.302;2024-02-26T05:15:01;2.97;;;0.50;;
84009;SDS011;74073;51.482;4.302;2024-02-26T05:17:27;1.80;;;0.30;;
84009;SDS011;74073;51.482;4.302;2024-02-26T05:19:53;2.10;;;0.30;;
84009;SDS011;74073;51.482;4.302;2024-02-26T05:22:19;2.15;;;0.30;;
84009;SDS011;74073;51.482;4.302;2024-02-26T05:24:45;2.95;;;0.55;;
84009;SDS011;74073;51.482;4.302;2024-02-26T05:27:11;1.88;;;0.47;;
84009;SDS011;74073;51.482;4.302;2024-02-26T05:29:37;2.15;;;0.32;;
84009;SDS011;74073;51.482;4.302;2024-02-26T05:32:04;1.58;;;0.20;;
84009;SDS011;74073;51.482;4.302;2024-02-26T05:34:30;2.65;;;0.25;;
84009;SDS011;74073;51.482;4.302;2024-02-26T05:36:58;2.20;;;0.50;;
84009;SDS011;74073;51.482;4.302;2024-02-26T05:39:24;2.20;;;0.40;;
84009;SDS011;74073;51.482;4.302;2024-02-26T05:41:50;1.63;;;0.25;;
84009;SDS011;74073;51.482;4.302;2024-02-26T05:44:16;1.60;;;0.30;;
84009;SDS011;74073;51.482;4.302;2024-02-26T05:46:42;2.90;;;0.40;;
84009;SDS011;74073;51.482;4.302;2024-02-26T05:49:08;1.55;;;0.20;;
84009;SDS011;74073;51.482;4.302;2024-02-26T05:51:34;1.98;;;0.20;;
84009;SDS011;74073;51.482;4.302;2024-02-26T05:54:00;2.40;;;0.22;;
84009;SDS011;74073;51.482;4.302;2024-02-26T05:56:27;2.50;;;0.40;;
84009;SDS011;74073;51.482;4.302;2024-02-26T05:58:53;2.58;;;0.20;;
84009;SDS011;74073;51.482;4.302;2024-02-26T06:01:19;1.98;;;0.30;;
84009;SDS011;74073;51.482;4.302;2024-02-26T06:03:45;2.10;;;0.30;;
84009;SDS011;74073;51.482;4.302;2024-02-26T06:06:11;1.70;;;0.35;;
84009;SDS011;74073;51.482;4.302;2024-02-26T06:08:40;2.08;;;0.80;;
84009;SDS011;74073;51.482;4.302;2024-02-26T06:11:06;1.88;;;0.30;;
84009;SDS011;74073;51.482;4.302;2024-02-26T06:13:32;1.67;;;0.35;;
84009;SDS011;74073;51.482;4.302;2024-02-26T06:15:58;1.60;;;0.40;;
84009;SDS011;74073;51.482;4.302;2024-02-26T06:18:24;1.60;;;0.22;;
84009;SDS011;74073;51.482;4.302;2024-02-26T06:20:50;1.20;;;0.40;;
84009;SDS011;74073;51.482;4.302;2024-02-26T06:23:16;1.77;;;0.20;;
84009;SDS011;74073;51.482;4.302;2024-02-26T06:25:42;1.45;;;0.20;;
84009;SDS011;74073;51.482;4.302;2024-02-26T06:28:08;2.13;;;0.40;;
84009;SDS011;74073;51.482;4.302;2024-02-26T06:30:34;1.38;;;0.30;;
84009;SDS011;74073;51.482;4.302;2024-02-26T06:33:01;1.73;;;0.43;;
84009;SDS011;74073;51.482;4.302;2024-02-26T06:35:28;1.65;;;0.65;;
84009;SDS011;74073;51.482;4.302;2024-02-26T06:37:54;2.30;;;0.45;;
84009;SDS011;74073;51.482;4.302;2024-02-26T06:40:20;3.40;;;0.30;;
84009;SDS011;74073;51.482;4.302;2024-02-26T06:42:46;2.28;;;0.20;;
84009;SDS011;74073;51.482;4.302;2024-02-26T06:45:12;1.73;;;0.20;;
84009;SDS011;74073;51.482;4.302;2024-02-26T06:47:38;8.45;;;1.73;;
84009;SDS011;74073;51.482;4.302;2024-02-26T06:50:04;32.60;;;9.27;;
84009;SDS011;74073;51.482;4.302;2024-02-26T06:52:30;16.88;;;4.00;;
84009;SDS011;74073;51.482;4.302;2024-02-26T06:54:56;17.15;;;3.80;;
84009;SDS011;74073;51.482;4.302;2024-02-26T06:57:22;15.65;;;3.15;;
84009;SDS011;74073;51.482;4.302;2024-02-26T06:59:49;11.52;;;3.28;;
84009;SDS011;74073;51.482;4.302;2024-02-26T07:02:15;8.80;;;3.40;;
84009;SDS011;74073;51.482;4.302;2024-02-26T07:04:42;9.85;;;2.50;;
84009;SDS011;74073;51.482;4.302;2024-02-26T07:07:08;7.88;;;1.75;;
84009;SDS011;74073;51.482;4.302;2024-02-26T07:09:35;7.78;;;1.80;;
84009;SDS011;74073;51.482;4.302;2024-02-26T07:12:01;8.30;;;1.23;;
84009;SDS011;74073;51.482;4.302;2024-02-26T07:14:27;6.75;;;1.00;;
84009;SDS011;74073;51.482;4.302;2024-02-26T07:16:53;10.77;;;1.88;;
84009;SDS011;74073;51.482;4.302;2024-02-26T07:19:19;8.52;;;1.40;;
84009;SDS011;74073;51.482;4.302;2024-02-26T07:21:45;7.40;;;1.25;;
84009;SDS011;74073;51.482;4.302;2024-02-26T07:24:11;7.30;;;1.52;;
84009;SDS011;74073;51.482;4.302;2024-02-26T07:26:37;6.85;;;1.40;;
84009;SDS011;74073;51.482;4.302;2024-02-26T07:29:03;6.53;;;0.95;;
84009;SDS011;74073;51.482;4.302;2024-02-26T07:31:30;5.55;;;1.15;;
84009;SDS011;74073;51.482;4.302;2024-02-26T07:33:56;4.88;;;1.00;;
84009;SDS011;74073;51.482;4.302;2024-02-26T07:36:22;4.28;;;0.77;;
84009;SDS011;74073;51.482;4.302;2024-02-26T07:38:48;4.57;;;0.77;;
84009;SDS011;74073;51.482;4.302;2024-02-26T07:41:14;4.78;;;0.80;;
84009;SDS011;74073;51.482;4.302;2024-02-26T07:43:40;5.88;;;0.88;;
84009;SDS011;74073;51.482;4.302;2024-02-26T07:46:06;4.55;;;0.63;;
84009;SDS011;74073;51.482;4.302;2024-02-26T07:48:32;5.20;;;0.77;;
84009;SDS011;74073;51.482;4.302;2024-02-26T07:50:58;5.18;;;0.70;;
84009;SDS011;74073;51.482;4.302;2024-02-26T07:53:25;4.18;;;1.27;;
84009;SDS011;74073;51.482;4.302;2024-02-26T07:55:51;4.75;;;0.55;;
84009;SDS011;74073;51.482;4.302;2024-02-26T07:58:17;3.35;;;0.43;;
84009;SDS011;74073;51.482;4.302;2024-02-26T08:00:43;3.67;;;0.73;;
84009;SDS011;74073;51.482;4.302;2024-02-26T08:03:11;5.30;;;0.85;;
84009;SDS011;74073;51.482;4.302;2024-02-26T08:05:38;6.07;;;0.30;;
84009;SDS011;74073;51.482;4.302;2024-02-26T08:08:05;3.13;;;0.52;;
84009;SDS011;74073;51.482;4.302;2024-02-26T08:10:32;7.45;;;0.88;;
84009;SDS011;74073;51.482;4.302;2024-02-26T08:12:58;3.78;;;0.80;;
84009;SDS011;74073;51.482;4.302;2024-02-26T08:15:30;3.15;;;0.50;;
84009;SDS011;74073;51.482;4.302;2024-02-26T08:17:57;3.55;;;0.30;;
84009;SDS011;74073;51.482;4.302;2024-02-26T08:20:23;4.10;;;0.40;;
84009;SDS011;74073;51.482;4.302;2024-02-26T08:22:49;4.20;;;0.35;;
84009;SDS011;74073;51.482;4.302;2024-02-26T08:25:15;4.10;;;0.60;;
84009;SDS011;74073;51.482;4.302;2024-02-26T08:27:41;5.00;;;0.50;;
84009;SDS011;74073;51.482;4.302;2024-02-26T08:30:07;4.15;;;0.40;;
84009;SDS011;74073;51.482;4.302;2024-02-26T08:32:34;3.83;;;0.85;;
84009;SDS011;74073;51.482;4.302;2024-02-26T08:35:00;4.75;;;0.40;;
84009;SDS011;74073;51.482;4.302;2024-02-26T08:37:26;3.97;;;0.73;;
84009;SDS011;74073;51.482;4.302;2024-02-26T08:39:52;5.57;;;0.60;;
84009;SDS011;74073;51.482;4.302;2024-02-26T08:42:18;3.83;;;0.73;;
84009;SDS011;74073;51.482;4.302;2024-02-26T08:44:44;2.60;;;0.40;;
84009;SDS011;74073;51.482;4.302;2024-02-26T08:47:10;4.95;;;0.80;;
84009;SDS011;74073;51.482;4.302;2024-02-26T08:49:36;2.90;;;0.20;;
84009;SDS011;74073;51.482;4.302;2024-02-26T08:52:03;4.05;;;0.50;;
84009;SDS011;74073;51.482;4.302;2024-02-26T08:54:29;5.55;;;0.73;;
84009;SDS011;74073;51.482;4.302;2024-02-26T08:56:56;7.32;;;1.17;;
84009;SDS011;74073;51.482;4.302;2024-02-26T08:59:22;3.35;;;0.52;;
84009;SDS011;74073;51.482;4.302;2024-02-26T09:01:48;5.90;;;1.08;;
84009;SDS011;74073;51.482;4.302;2024-02-26T09:04:14;6.70;;;1.10;;
84009;SDS011;74073;51.482;4.302;2024-02-26T09:06:40;4.45;;;0.30;;
84009;SDS011;74073;51.482;4.302;2024-02-26T09:09:06;6.70;;;0.90;;
84009;SDS011;74073;51.482;4.302;2024-02-26T09:11:32;5.45;;;1.02;;
84009;SDS011;74073;51.482;4.302;2024-02-26T09:13:58;3.60;;;0.75;;
84009;SDS011;74073;51.482;4.302;2024-02-26T09:16:24;6.00;;;0.70;;
84009;SDS011;74073;51.482;4.302;2024-02-26T09:18:50;5.57;;;1.33;;
84009;SDS011;74073;51.482;4.302;2024-02-26T09:21:16;5.53;;;0.93;;
84009;SDS011;74073;51.482;4.302;2024-02-26T09:23:48;3.50;;;0.80;;
84009;SDS011;74073;51.482;4.302;2024-02-26T09:26:14;3.30;;;0.55;;
84009;SDS011;74073;51.482;4.302;2024-02-26T09:28:40;4.95;;;0.80;;
84009;SDS011;74073;51.482;4.302;2024-02-26T09:31:06;5.45;;;1.20;;
84009;SDS011;74073;51.482;4.302;2024-02-26T09:33:32;5.50;;;1.15;;
84009;SDS011;74073;51.482;4.302;2024-02-26T09:35:58;3.90;;;0.68;;
84009;SDS011;74073;51.482;4.302;2024-02-26T09:38:25;5.20;;;0.90;;
84009;SDS011;74073;51.482;4.302;2024-02-26T09:40:52;6.50;;;1.00;;
84009;SDS011;74073;51.482;4.302;2024-02-26T09:43:18;5.53;;;0.73;;
84009;SDS011;74073;51.482;4.302;2024-02-26T09:45:47;5.35;;;1.05;;
84009;SDS011;74073;51.482;4.302;2024-02-26T09:48:13;4.43;;;0.80;;
84009;SDS011;74073;51.482;4.302;2024-02-26T09:50:41;3.28;;;0.73;;
84009;SDS011;74073;51.482;4.302;2024-02-26T09:53:08;3.15;;;0.47;;
84009;SDS011;74073;51.482;4.302;2024-02-26T09:55:35;3.58;;;0.82;;
84009;SDS011;74073;51.482;4.302;2024-02-26T09:58:01;5.25;;;0.60;;
84009;SDS011;74073;51.482;4.302;2024-02-26T10:00:29;3.13;;;1.40;;
84009;SDS011;74073;51.482;4.302;2024-02-26T10:03:01;4.35;;;0.30;;
84009;SDS011;74073;51.482;4.302;2024-02-26T10:05:29;5.95;;;0.50;;
84009;SDS011;74073;51.482;4.302;2024-02-26T10:07:55;2.95;;;0.60;;
84009;SDS011;74073;51.482;4.302;2024-02-26T10:10:22;6.18;;;0.90;;
84009;SDS011;74073;51.482;4.302;2024-02-26T10:12:49;3.28;;;1.70;;
84009;SDS011;74073;51.482;4.302;2024-02-26T10:15:16;3.30;;;0.32;;
84009;SDS011;74073;51.482;4.302;2024-02-26T10:17:42;3.67;;;0.30;;
84009;SDS011;74073;51.482;4.302;2024-02-26T10:22:40;2.80;;;0.30;;
84009;SDS011;74073;51.482;4.302;2024-02-26T10:25:06;3.67;;;0.85;;
84009;SDS011;74073;51.482;4.302;2024-02-26T10:27:33;2.88;;;0.40;;
84009;SDS011;74073;51.482;4.302;2024-02-26T10:30:02;6.05;;;0.47;;
84009;SDS011;74073;51.482;4.302;2024-02-26T10:32:28;4.90;;;1.90;;
84009;SDS011;74073;51.482;4.302;2024-02-26T10:34:57;3.90;;;1.52;;
84009;SDS011;74073;51.482;4.302;2024-02-26T10:37:23;9.75;;;2.22;;
84009;SDS011;74073;51.482;4.302;2024-02-26T10:39:50;4.85;;;1.75;;
84009;SDS011;74073;51.482;4.302;2024-02-26T10:42:16;5.50;;;1.52;;
84009;SDS011;74073;51.482;4.302;2024-02-26T10:44:44;5.07;;;1.33;;
84009;SDS011;74073;51.482;4.302;2024-02-26T10:47:10;5.00;;;2.10;;
84009;SDS011;74073;51.482;4.302;2024-02-26T10:49:36;4.70;;;1.15;;
84009;SDS011;74073;51.482;4.302;2024-02-26T10:52:03;4.28;;;1.15;;
84009;SDS011;74073;51.482;4.302;2024-02-26T10:54:31;4.35;;;1.35;;
84009;SDS011;74073;51.482;4.302;2024-02-26T10:56:58;2.78;;;0.90;;
84009;SDS011;74073;51.482;4.302;2024-02-26T10:59:24;3.63;;;1.00;;
84009;SDS011;74073;51.482;4.302;2024-02-26T11:01:50;3.08;;;0.73;;
84009;SDS011;74073;51.482;4.302;2024-02-26T11:04:17;2.78;;;0.75;;
84009;SDS011;74073;51.482;4.302;2024-02-26T11:06:46;2.38;;;0.70;;
84009;SDS011;74073;51.482;4.302;2024-02-26T11:09:13;3.35;;;0.85;;
84009;SDS011;74073;51.482;4.302;2024-02-26T11:11:40;4.63;;;0.70;;
84009;SDS011;74073;51.482;4.302;2024-02-26T11:14:06;8.45;;;1.90;;
84009;SDS011;74073;51.482;4.302;2024-02-26T11:19:01;12.23;;;6.57;;
84009;SDS011;74073;51.482;4.302;2024-02-26T11:21:27;17.33;;;6.20;;
84009;SDS011;74073;51.482;4.302;2024-02-26T11:24:04;9.77;;;3.85;;
84009;SDS011;74073;51.482;4.302;2024-02-26T11:26:30;9.02;;;2.78;;
84009;SDS011;74073;51.482;4.302;2024-02-26T11:28:56;7.03;;;2.80;;
84009;SDS011;74073;51.482;4.302;2024-02-26T11:31:24;6.07;;;2.22;;
84009;SDS011;74073;51.482;4.302;2024-02-26T11:33:52;9.30;;;2.22;;
84009;SDS011;74073;51.482;4.302;2024-02-26T11:36:18;7.60;;;2.00;;
84009;SDS011;74073;51.482;4.302;2024-02-26T11:38:45;6.82;;;1.52;;
84009;SDS011;74073;51.482;4.302;2024-02-26T11:41:14;5.30;;;1.55;;
84009;SDS011;74073;51.482;4.302;2024-02-26T11:43:57;8.18;;;2.00;;
84009;SDS011;74073;51.482;4.302;2024-02-26T11:46:33;5.82;;;1.17;;
84009;SDS011;74073;51.482;4.302;2024-02-26T11:49:03;5.35;;;1.42;;
84009;SDS011;74073;51.482;4.302;2024-02-26T11:51:33;4.50;;;1.88;;
84009;SDS011;74073;51.482;4.302;2024-02-26T11:53:59;8.52;;;1.52;;
84009;SDS011;74073;51.482;4.302;2024-02-26T11:56:26;2.85;;;0.73;;
84009;SDS011;74073;51.482;4.302;2024-02-26T12:01:40;3.28;;;0.82;;
84009;SDS011;74073;51.482;4.302;2024-02-26T12:04:13;5.35;;;0.95;;
84009;SDS011;74073;51.482;4.302;2024-02-26T12:09:30;4.30;;;0.73;;
84009;SDS011;74073;51.482;4.302;2024-02-26T12:11:57;6.13;;;0.98;;
84009;SDS011;74073;51.482;4.302;2024-02-26T12:14:27;3.70;;;0.80;;
84009;SDS011;74073;51.482;4.302;2024-02-26T12:16:53;2.83;;;0.57;;
84009;SDS011;74073;51.482;4.302;2024-02-26T12:19:21;2.95;;;0.77;;
84009;SDS011;74073;51.482;4.302;2024-02-26T12:21:50;3.13;;;0.32;;
84009;SDS011;74073;51.482;4.302;2024-02-26T12:24:17;2.30;;;0.32;;
84009;SDS011;74073;51.482;4.302;2024-02-26T12:26:45;2.90;;;0.55;;
84009;SDS011;74073;51.482;4.302;2024-02-26T12:29:11;4.13;;;0.52;;
84009;SDS011;74073;51.482;4.302;2024-02-26T12:31:38;2.97;;;0.40;;
84009;SDS011;74073;51.482;4.302;2024-02-26T12:34:04;1.63;;;0.40;;
84009;SDS011;74073;51.482;4.302;2024-02-26T12:36:31;3.03;;;0.50;;
84009;SDS011;74073;51.482;4.302;2024-02-26T12:38:57;3.13;;;0.60;;
84009;SDS011;74073;51.482;4.302;2024-02-26T12:41:23;4.65;;;0.63;;
84009;SDS011;74073;51.482;4.302;2024-02-26T12:43:49;3.45;;;0.60;;
84009;SDS011;74073;51.482;4.302;2024-02-26T12:46:15;3.03;;;0.38;;
84009;SDS011;74073;51.482;4.302;2024-02-26T12:48:46;3.40;;;0.47;;
84009;SDS011;74073;51.482;4.302;2024-02-26T12:51:12;3.00;;;0.35;;
84009;SDS011;74073;51.482;4.302;2024-02-26T12:53:40;2.80;;;0.30;;
84009;SDS011;74073;51.482;4.302;2024-02-26T12:56:07;5.07;;;0.50;;
84009;SDS011;74073;51.482;4.302;2024-02-26T12:58:34;2.72;;;0.20;;
84009;SDS011;74073;51.482;4.302;2024-02-26T13:01:01;3.78;;;0.63;;
84009;SDS011;74073;51.482;4.302;2024-02-26T13:03:27;3.10;;;0.25;;
84009;SDS011;74073;51.482;4.302;2024-02-26T13:05:53;2.13;;;0.20;;
84009;SDS011;74073;51.482;4.302;2024-02-26T13:08:20;2.20;;;0.30;;
84009;SDS011;74073;51.482;4.302;2024-02-26T13:10:46;3.63;;;0.38;;
84009;SDS011;74073;51.482;4.302;2024-02-26T13:13:16;4.63;;;0.80;;
84009;SDS011;74073;51.482;4.302;2024-02-26T13:15:42;3.30;;;0.20;;
84009;SDS011;74073;51.482;4.302;2024-02-26T13:18:12;2.65;;;0.20;;
84009;SDS011;74073;51.482;4.302;2024-02-26T13:20:39;3.25;;;0.30;;
84009;SDS011;74073;51.482;4.302;2024-02-26T13:23:12;5.45;;;0.47;;
84009;SDS011;74073;51.482;4.302;2024-02-26T13:25:38;4.72;;;0.80;;
84009;SDS011;74073;51.482;4.302;2024-02-26T13:28:06;5.07;;;0.50;;
84009;SDS011;74073;51.482;4.302;2024-02-26T13:30:33;5.78;;;0.45;;
84009;SDS011;74073;51.482;4.302;2024-02-26T13:33:06;3.65;;;0.45;;
84009;SDS011;74073;51.482;4.302;2024-02-26T13:38:00;2.38;;;0.28;;
84009;SDS011;74073;51.482;4.302;2024-02-26T13:40:26;4.57;;;0.30;;
84009;SDS011;74073;51.482;4.302;2024-02-26T13:42:52;4.40;;;0.40;;
84009;SDS011;74073;51.482;4.302;2024-02-26T13:45:18;6.90;;;0.63;;
84009;SDS011;74073;51.482;4.302;2024-02-26T13:47:44;5.30;;;0.40;;
84009;SDS011;74073;51.482;4.302;2024-02-26T13:50:10;4.53;;;0.30;;
84009;SDS011;74073;51.482;4.302;2024-02-26T13:52:36;5.05;;;0.30;;
84009;SDS011;74073;51.482;4.302;2024-02-26T13:55:02;4.00;;;0.32;;
84009;SDS011;74073;51.482;4.302;2024-02-26T13:57:28;4.28;;;0.43;;
84009;SDS011;74073;51.482;4.302;2024-02-26T13:59:54;4.82;;;0.43;;
84009;SDS011;74073;51.482;4.302;2024-02-26T14:02:20;2.67;;;0.30;;
84009;SDS011;74073;51.482;4.302;2024-02-26T14:04:47;4.47;;;0.52;;
84009;SDS011;74073;51.482;4.302;2024-02-26T14:07:13;4.32;;;0.47;;
84009;SDS011;74073;51.482;4.302;2024-02-26T14:09:39;4.18;;;0.25;;
84009;SDS011;74073;51.482;4.302;2024-02-26T14:12:05;4.15;;;0.40;;
84009;SDS011;74073;51.482;4.302;2024-02-26T14:14:31;3.72;;;0.20;;
84009;SDS011;74073;51.482;4.302;2024-02-26T14:17:00;4.50;;;0.65;;
84009;SDS011;74073;51.482;4.302;2024-02-26T14:19:27;4.15;;;0.50;;
84009;SDS011;74073;51.482;4.302;2024-02-26T14:21:53;3.80;;;0.63;;
84009;SDS011;74073;51.482;4.302;2024-02-26T14:24:19;4.80;;;1.10;;
84009;SDS011;74073;51.482;4.302;2024-02-26T14:26:45;3.80;;;0.20;;
84009;SDS011;74073;51.482;4.302;2024-02-26T14:29:11;2.17;;;0.13;;
84009;SDS011;74073;51.482;4.302;2024-02-26T14:31:37;3.45;;;0.22;;
84009;SDS011;74073;51.482;4.302;2024-02-26T14:34:03;4.82;;;0.32;;
84009;SDS011;74073;51.482;4.302;2024-02-26T14:36:29;4.72;;;0.30;;
84009;SDS011;74073;51.482;4.302;2024-02-26T14:38:55;5.32;;;0.30;;
84009;SDS011;74073;51.482;4.302;2024-02-26T14:41:21;2.10;;;0.28;;
84009;SDS011;74073;51.482;4.302;2024-02-26T14:43:47;3.58;;;0.20;;
84009;SDS011;74073;51.482;4.302;2024-02-26T14:46:13;4.15;;;0.30;;
84009;SDS011;74073;51.482;4.302;2024-02-26T14:48:39;3.38;;;0.30;;
84009;SDS011;74073;51.482;4.302;2024-02-26T14:51:05;5.93;;;0.60;;
84009;SDS011;74073;51.482;4.302;2024-02-26T14:53:32;3.28;;;0.40;;
84009;SDS011;74073;51.482;4.302;2024-02-26T14:55:58;5.07;;;0.20;;